Terminal Aerodrome Forecast
Issued by NWS Wakefield, VA

Home | Current Version | Previous Version | Text Only | Print | Product List | Glossary On
Versions: 1 2 3 4 5 6 7 8 9 10 11 12 13 14 15 16 17 18
813
FTUS41 KAKQ 080916 AAD
TAFORF
TAF AMD
KORF 080916Z 0809/0906 35015G22KT P6SM SCT030 SCT120
     FM081700 02008KT P6SM SCT030 SCT100
     FM082100 09008KT P6SM OVC050
     FM090200 14008KT 6SM -RA BR OVC025=

USA.gov is the U.S. government's official web portal to all federal, state and local government web resources and services.